sensor_id;sensor_type;location;lat;lon;timestamp;temperature;humidity
16901;DHT22;8567;52.540;6.434;2022-07-21T00:01:05;25.60;62.70
16901;DHT22;8567;52.540;6.434;2022-07-21T00:03:32;25.70;62.50
16901;DHT22;8567;52.540;6.434;2022-07-21T00:05:59;25.70;62.50
16901;DHT22;8567;52.540;6.434;2022-07-21T00:08:27;25.70;62.50
16901;DHT22;8567;52.540;6.434;2022-07-21T00:10:54;25.60;62.80
16901;DHT22;8567;52.540;6.434;2022-07-21T00:13:21;25.60;62.80
16901;DHT22;8567;52.540;6.434;2022-07-21T00:15:48;25.60;63.10
16901;DHT22;8567;52.540;6.434;2022-07-21T00:18:16;25.50;62.50
16901;DHT22;8567;52.540;6.434;2022-07-21T00:20:43;25.50;63.30
16901;DHT22;8567;52.540;6.434;2022-07-21T00:23:10;25.40;63.30
16901;DHT22;8567;52.540;6.434;2022-07-21T00:25:38;25.40;63.50
16901;DHT22;8567;52.540;6.434;2022-07-21T00:28:05;25.40;63.50
16901;DHT22;8567;52.540;6.434;2022-07-21T00:30:32;25.40;63.60
16901;DHT22;8567;52.540;6.434;2022-07-21T00:32:59;25.40;63.50
16901;DHT22;8567;52.540;6.434;2022-07-21T00:35:26;25.40;63.40
16901;DHT22;8567;52.540;6.434;2022-07-21T00:37:53;25.40;63.50
16901;DHT22;8567;52.540;6.434;2022-07-21T00:40:20;25.40;63.20
16901;DHT22;8567;52.540;6.434;2022-07-21T00:42:48;25.40;63.40
16901;DHT22;8567;52.540;6.434;2022-07-21T00:45:15;25.30;63.60
16901;DHT22;8567;52.540;6.434;2022-07-21T00:47:42;25.30;63.50
16901;DHT22;8567;52.540;6.434;2022-07-21T00:50:11;25.30;63.60
16901;DHT22;8567;52.540;6.434;2022-07-21T00:52:38;25.30;63.60
16901;DHT22;8567;52.540;6.434;2022-07-21T00:55:07;25.20;63.60
16901;DHT22;8567;52.540;6.434;2022-07-21T00:57:36;25.20;63.50
16901;DHT22;8567;52.540;6.434;2022-07-21T01:00:06;25.30;63.20
16901;DHT22;8567;52.540;6.434;2022-07-21T01:02:34;25.40;63.00
16901;DHT22;8567;52.540;6.434;2022-07-21T01:05:02;25.40;62.90
16901;DHT22;8567;52.540;6.434;2022-07-21T01:07:29;25.40;62.90
16901;DHT22;8567;52.540;6.434;2022-07-21T01:09:56;25.40;62.90
16901;DHT22;8567;52.540;6.434;2022-07-21T01:12:23;25.50;62.30
16901;DHT22;8567;52.540;6.434;2022-07-21T01:14:50;25.50;62.60
16901;DHT22;8567;52.540;6.434;2022-07-21T01:17:19;25.40;62.70
16901;DHT22;8567;52.540;6.434;2022-07-21T01:19:46;25.30;62.70
16901;DHT22;8567;52.540;6.434;2022-07-21T01:22:14;25.20;62.60
16901;DHT22;8567;52.540;6.434;2022-07-21T01:24:42;25.20;62.60
16901;DHT22;8567;52.540;6.434;2022-07-21T01:27:08;25.20;62.80
16901;DHT22;8567;52.540;6.434;2022-07-21T01:29:35;25.20;62.70
16901;DHT22;8567;52.540;6.434;2022-07-21T01:32:02;25.20;62.60
16901;DHT22;8567;52.540;6.434;2022-07-21T01:34:29;25.20;62.70
16901;DHT22;8567;52.540;6.434;2022-07-21T01:36:56;25.20;62.60
16901;DHT22;8567;52.540;6.434;2022-07-21T01:39:24;25.10;62.60
16901;DHT22;8567;52.540;6.434;2022-07-21T01:42:09;25.10;62.90
16901;DHT22;8567;52.540;6.434;2022-07-21T01:44:36;25.10;62.90
16901;DHT22;8567;52.540;6.434;2022-07-21T01:47:02;25.10;62.90
16901;DHT22;8567;52.540;6.434;2022-07-21T01:49:29;25.10;62.80
16901;DHT22;8567;52.540;6.434;2022-07-21T01:51:56;25.10;62.90
16901;DHT22;8567;52.540;6.434;2022-07-21T01:54:24;25.10;62.90
16901;DHT22;8567;52.540;6.434;2022-07-21T01:56:52;25.10;62.80
16901;DHT22;8567;52.540;6.434;2022-07-21T01:59:19;25.10;62.70
16901;DHT22;8567;52.540;6.434;2022-07-21T02:01:46;25.10;62.80
16901;DHT22;8567;52.540;6.434;2022-07-21T02:04:13;25.20;62.50
16901;DHT22;8567;52.540;6.434;2022-07-21T02:06:39;25.20;62.60
16901;DHT22;8567;52.540;6.434;2022-07-21T02:09:06;25.20;62.60
16901;DHT22;8567;52.540;6.434;2022-07-21T02:11:35;25.20;62.70
16901;DHT22;8567;52.540;6.434;2022-07-21T02:14:02;25.20;62.60
16901;DHT22;8567;52.540;6.434;2022-07-21T02:16:29;25.10;62.70
16901;DHT22;8567;52.540;6.434;2022-07-21T02:18:56;25.10;62.70
16901;DHT22;8567;52.540;6.434;2022-07-21T02:21:23;25.10;62.80
16901;DHT22;8567;52.540;6.434;2022-07-21T02:23:50;25.10;62.50
16901;DHT22;8567;52.540;6.434;2022-07-21T02:26:17;25.10;62.70
16901;DHT22;8567;52.540;6.434;2022-07-21T02:28:45;25.10;62.70
16901;DHT22;8567;52.540;6.434;2022-07-21T02:31:12;25.10;62.80
16901;DHT22;8567;52.540;6.434;2022-07-21T02:33:39;25.10;62.60
16901;DHT22;8567;52.540;6.434;2022-07-21T02:36:07;25.10;62.70
16901;DHT22;8567;52.540;6.434;2022-07-21T02:38:34;25.10;62.70
16901;DHT22;8567;52.540;6.434;2022-07-21T02:41:00;25.10;62.90
16901;DHT22;8567;52.540;6.434;2022-07-21T02:43:27;25.10;62.60
16901;DHT22;8567;52.540;6.434;2022-07-21T02:45:56;25.00;63.00
16901;DHT22;8567;52.540;6.434;2022-07-21T02:48:23;25.00;62.90
16901;DHT22;8567;52.540;6.434;2022-07-21T02:50:49;25.10;62.60
16901;DHT22;8567;52.540;6.434;2022-07-21T02:53:18;25.10;62.50
16901;DHT22;8567;52.540;6.434;2022-07-21T02:55:46;25.00;62.60
16901;DHT22;8567;52.540;6.434;2022-07-21T02:58:15;25.00;62.50
16901;DHT22;8567;52.540;6.434;2022-07-21T03:00:44;25.00;62.30
16901;DHT22;8567;52.540;6.434;2022-07-21T03:03:12;25.10;62.00
16901;DHT22;8567;52.540;6.434;2022-07-21T03:05:39;25.10;62.00
16901;DHT22;8567;52.540;6.434;2022-07-21T03:08:07;25.10;62.10
16901;DHT22;8567;52.540;6.434;2022-07-21T03:10:34;25.10;62.20
16901;DHT22;8567;52.540;6.434;2022-07-21T03:13:01;25.00;62.10
16901;DHT22;8567;52.540;6.434;2022-07-21T03:15:28;25.00;62.20
16901;DHT22;8567;52.540;6.434;2022-07-21T03:17:56;25.00;62.20
16901;DHT22;8567;52.540;6.434;2022-07-21T03:20:25;25.10;62.20
16901;DHT22;8567;52.540;6.434;2022-07-21T03:22:51;25.10;61.90
16901;DHT22;8567;52.540;6.434;2022-07-21T03:25:18;25.10;62.10
16901;DHT22;8567;52.540;6.434;2022-07-21T03:27:46;25.10;62.20
16901;DHT22;8567;52.540;6.434;2022-07-21T03:30:14;25.00;62.40
16901;DHT22;8567;52.540;6.434;2022-07-21T03:32:42;25.00;62.40
16901;DHT22;8567;52.540;6.434;2022-07-21T03:35:11;25.00;62.50
16901;DHT22;8567;52.540;6.434;2022-07-21T03:37:44;24.90;62.90
16901;DHT22;8567;52.540;6.434;2022-07-21T03:40:12;24.90;62.80
16901;DHT22;8567;52.540;6.434;2022-07-21T03:42:39;24.90;62.80
16901;DHT22;8567;52.540;6.434;2022-07-21T03:45:07;24.90;62.90
16901;DHT22;8567;52.540;6.434;2022-07-21T03:47:34;24.90;63.00
16901;DHT22;8567;52.540;6.434;2022-07-21T03:50:02;25.00;62.60
16901;DHT22;8567;52.540;6.434;2022-07-21T03:52:29;24.90;62.90
16901;DHT22;8567;52.540;6.434;2022-07-21T03:54:57;24.90;63.10
16901;DHT22;8567;52.540;6.434;2022-07-21T03:57:36;24.90;63.20
16901;DHT22;8567;52.540;6.434;2022-07-21T04:00:05;24.90;62.90
16901;DHT22;8567;52.540;6.434;2022-07-21T04:02:33;25.00;62.40
16901;DHT22;8567;52.540;6.434;2022-07-21T04:05:00;25.10;62.30
16901;DHT22;8567;52.540;6.434;2022-07-21T04:07:27;25.20;62.20
16901;DHT22;8567;52.540;6.434;2022-07-21T04:09:54;25.10;62.10
16901;DHT22;8567;52.540;6.434;2022-07-21T04:12:26;25.10;62.20
16901;DHT22;8567;52.540;6.434;2022-07-21T04:14:53;25.10;61.90
16901;DHT22;8567;52.540;6.434;2022-07-21T04:17:19;25.10;62.10
16901;DHT22;8567;52.540;6.434;2022-07-21T04:19:46;25.10;62.00
16901;DHT22;8567;52.540;6.434;2022-07-21T04:22:13;25.20;61.90
16901;DHT22;8567;52.540;6.434;2022-07-21T04:24:40;25.10;61.80
16901;DHT22;8567;52.540;6.434;2022-07-21T04:27:07;25.10;61.80
16901;DHT22;8567;52.540;6.434;2022-07-21T04:29:35;25.10;61.80
16901;DHT22;8567;52.540;6.434;2022-07-21T04:32:02;25.10;61.80
16901;DHT22;8567;52.540;6.434;2022-07-21T04:34:29;25.10;61.90
16901;DHT22;8567;52.540;6.434;2022-07-21T04:36:56;25.10;61.80
16901;DHT22;8567;52.540;6.434;2022-07-21T04:39:23;25.10;61.90
16901;DHT22;8567;52.540;6.434;2022-07-21T04:41:50;25.00;61.80
16901;DHT22;8567;52.540;6.434;2022-07-21T04:44:16;25.10;61.90
16901;DHT22;8567;52.540;6.434;2022-07-21T04:46:45;25.10;61.70
16901;DHT22;8567;52.540;6.434;2022-07-21T04:49:11;25.10;61.70
16901;DHT22;8567;52.540;6.434;2022-07-21T04:51:38;25.10;61.80
16901;DHT22;8567;52.540;6.434;2022-07-21T04:54:05;25.00;61.80
16901;DHT22;8567;52.540;6.434;2022-07-21T04:56:32;25.00;61.60
16901;DHT22;8567;52.540;6.434;2022-07-21T04:58:59;25.00;61.80
16901;DHT22;8567;52.540;6.434;2022-07-21T05:01:26;25.00;61.50
16901;DHT22;8567;52.540;6.434;2022-07-21T05:03:54;25.10;61.50
16901;DHT22;8567;52.540;6.434;2022-07-21T05:06:21;25.10;61.40
16901;DHT22;8567;52.540;6.434;2022-07-21T05:08:47;25.10;61.20
16901;DHT22;8567;52.540;6.434;2022-07-21T05:11:14;25.10;61.10
16901;DHT22;8567;52.540;6.434;2022-07-21T05:13:41;25.10;61.30
16901;DHT22;8567;52.540;6.434;2022-07-21T05:16:08;25.10;61.30
16901;DHT22;8567;52.540;6.434;2022-07-21T05:18:34;25.10;61.40
16901;DHT22;8567;52.540;6.434;2022-07-21T05:21:03;25.10;61.30
16901;DHT22;8567;52.540;6.434;2022-07-21T05:23:29;25.10;61.40
16901;DHT22;8567;52.540;6.434;2022-07-21T05:25:56;25.00;61.50
16901;DHT22;8567;52.540;6.434;2022-07-21T05:28:23;25.00;61.60
16901;DHT22;8567;52.540;6.434;2022-07-21T05:30:50;25.00;61.50
16901;DHT22;8567;52.540;6.434;2022-07-21T05:33:17;25.00;61.40
16901;DHT22;8567;52.540;6.434;2022-07-21T05:35:44;25.00;61.40
16901;DHT22;8567;52.540;6.434;2022-07-21T05:38:12;25.00;61.50
16901;DHT22;8567;52.540;6.434;2022-07-21T05:40:39;24.90;61.50
16901;DHT22;8567;52.540;6.434;2022-07-21T05:43:06;24.90;61.70
16901;DHT22;8567;52.540;6.434;2022-07-21T05:45:33;24.80;61.70
16901;DHT22;8567;52.540;6.434;2022-07-21T05:47:59;24.90;61.60
16901;DHT22;8567;52.540;6.434;2022-07-21T05:50:26;24.90;61.60
16901;DHT22;8567;52.540;6.434;2022-07-21T05:52:53;24.90;61.60
16901;DHT22;8567;52.540;6.434;2022-07-21T05:55:21;24.90;61.50
16901;DHT22;8567;52.540;6.434;2022-07-21T05:57:48;24.90;61.50
16901;DHT22;8567;52.540;6.434;2022-07-21T06:00:16;24.80;61.90
16901;DHT22;8567;52.540;6.434;2022-07-21T06:02:43;24.90;61.80
16901;DHT22;8567;52.540;6.434;2022-07-21T06:05:10;24.90;61.50
16901;DHT22;8567;52.540;6.434;2022-07-21T06:07:37;24.90;61.30
16901;DHT22;8567;52.540;6.434;2022-07-21T06:10:05;24.90;61.30
16901;DHT22;8567;52.540;6.434;2022-07-21T06:12:33;25.00;61.40
16901;DHT22;8567;52.540;6.434;2022-07-21T06:15:00;24.90;61.30
16901;DHT22;8567;52.540;6.434;2022-07-21T06:17:27;24.80;61.50
16901;DHT22;8567;52.540;6.434;2022-07-21T06:19:56;24.80;61.50
16901;DHT22;8567;52.540;6.434;2022-07-21T06:22:23;24.90;61.40
16901;DHT22;8567;52.540;6.434;2022-07-21T06:24:51;24.90;61.40
16901;DHT22;8567;52.540;6.434;2022-07-21T06:27:17;24.80;61.40
16901;DHT22;8567;52.540;6.434;2022-07-21T06:29:45;24.80;61.30
16901;DHT22;8567;52.540;6.434;2022-07-21T06:32:12;24.90;61.20
16901;DHT22;8567;52.540;6.434;2022-07-21T06:34:39;24.80;61.30
16901;DHT22;8567;52.540;6.434;2022-07-21T06:37:05;24.70;61.40
16901;DHT22;8567;52.540;6.434;2022-07-21T06:39:32;24.70;61.60
16901;DHT22;8567;52.540;6.434;2022-07-21T06:41:59;24.70;61.50
16901;DHT22;8567;52.540;6.434;2022-07-21T06:44:26;24.70;61.60
16901;DHT22;8567;52.540;6.434;2022-07-21T06:46:54;24.80;61.60
16901;DHT22;8567;52.540;6.434;2022-07-21T06:49:21;24.80;61.90
16901;DHT22;8567;52.540;6.434;2022-07-21T06:51:48;24.80;61.80
16901;DHT22;8567;52.540;6.434;2022-07-21T06:54:14;24.90;61.60
16901;DHT22;8567;52.540;6.434;2022-07-21T06:56:41;24.90;61.40
16901;DHT22;8567;52.540;6.434;2022-07-21T06:59:08;24.90;61.30
16901;DHT22;8567;52.540;6.434;2022-07-21T07:01:34;25.00;61.10
16901;DHT22;8567;52.540;6.434;2022-07-21T07:04:03;25.30;60.80
16901;DHT22;8567;52.540;6.434;2022-07-21T07:06:30;25.00;61.30
16901;DHT22;8567;52.540;6.434;2022-07-21T07:08:57;24.80;62.00
16901;DHT22;8567;52.540;6.434;2022-07-21T07:11:24;24.80;62.00
16901;DHT22;8567;52.540;6.434;2022-07-21T07:13:50;24.90;62.00
16901;DHT22;8567;52.540;6.434;2022-07-21T07:16:17;24.90;62.00
16901;DHT22;8567;52.540;6.434;2022-07-21T07:18:44;24.90;61.90
16901;DHT22;8567;52.540;6.434;2022-07-21T07:21:12;24.90;61.50
16901;DHT22;8567;52.540;6.434;2022-07-21T07:23:39;25.00;61.20
16901;DHT22;8567;52.540;6.434;2022-07-21T07:26:07;25.00;61.00
16901;DHT22;8567;52.540;6.434;2022-07-21T07:28:34;24.90;60.80
16901;DHT22;8567;52.540;6.434;2022-07-21T07:31:01;25.30;60.20
16901;DHT22;8567;52.540;6.434;2022-07-21T07:33:27;25.10;60.20
16901;DHT22;8567;52.540;6.434;2022-07-21T07:35:54;25.00;60.60
16901;DHT22;8567;52.540;6.434;2022-07-21T07:38:24;25.20;60.30
16901;DHT22;8567;52.540;6.434;2022-07-21T07:40:51;25.20;60.10
16901;DHT22;8567;52.540;6.434;2022-07-21T07:43:17;25.10;60.50
16901;DHT22;8567;52.540;6.434;2022-07-21T07:45:44;25.10;60.50
16901;DHT22;8567;52.540;6.434;2022-07-21T07:48:11;25.20;60.40
16901;DHT22;8567;52.540;6.434;2022-07-21T07:50:38;25.10;60.10
16901;DHT22;8567;52.540;6.434;2022-07-21T07:53:04;25.10;60.00
16901;DHT22;8567;52.540;6.434;2022-07-21T07:55:35;25.10;60.10
16901;DHT22;8567;52.540;6.434;2022-07-21T07:58:02;25.10;60.10
16901;DHT22;8567;52.540;6.434;2022-07-21T08:00:29;25.10;60.20
16901;DHT22;8567;52.540;6.434;2022-07-21T08:02:56;25.20;60.30
16901;DHT22;8567;52.540;6.434;2022-07-21T08:05:23;25.30;59.90
16901;DHT22;8567;52.540;6.434;2022-07-21T08:07:49;25.40;59.70
16901;DHT22;8567;52.540;6.434;2022-07-21T08:10:16;25.40;59.40
16901;DHT22;8567;52.540;6.434;2022-07-21T08:12:44;25.40;59.30
16901;DHT22;8567;52.540;6.434;2022-07-21T08:15:11;25.40;59.30
16901;DHT22;8567;52.540;6.434;2022-07-21T08:17:38;25.30;59.30
16901;DHT22;8567;52.540;6.434;2022-07-21T08:20:05;25.40;59.30
16901;DHT22;8567;52.540;6.434;2022-07-21T08:22:32;25.40;59.20
16901;DHT22;8567;52.540;6.434;2022-07-21T08:24:59;25.30;59.40
16901;DHT22;8567;52.540;6.434;2022-07-21T08:27:26;25.40;59.60
16901;DHT22;8567;52.540;6.434;2022-07-21T08:29:54;25.40;59.50
16901;DHT22;8567;52.540;6.434;2022-07-21T08:32:21;25.40;59.70
16901;DHT22;8567;52.540;6.434;2022-07-21T08:34:48;25.30;59.60
16901;DHT22;8567;52.540;6.434;2022-07-21T08:37:15;25.40;59.50
16901;DHT22;8567;52.540;6.434;2022-07-21T08:39:42;25.30;59.50
16901;DHT22;8567;52.540;6.434;2022-07-21T08:42:09;25.30;59.20
16901;DHT22;8567;52.540;6.434;2022-07-21T08:44:36;25.30;59.30
16901;DHT22;8567;52.540;6.434;2022-07-21T08:47:05;25.30;59.40
16901;DHT22;8567;52.540;6.434;2022-07-21T08:49:33;25.30;59.50
16901;DHT22;8567;52.540;6.434;2022-07-21T08:52:01;25.30;59.90
16901;DHT22;8567;52.540;6.434;2022-07-21T08:54:28;25.30;59.60
16901;DHT22;8567;52.540;6.434;2022-07-21T08:56:55;25.20;59.70
16901;DHT22;8567;52.540;6.434;2022-07-21T08:59:22;25.30;59.40
16901;DHT22;8567;52.540;6.434;2022-07-21T09:01:49;25.30;59.50
16901;DHT22;8567;52.540;6.434;2022-07-21T09:04:22;25.40;59.30
16901;DHT22;8567;52.540;6.434;2022-07-21T09:06:50;25.90;58.60
16901;DHT22;8567;52.540;6.434;2022-07-21T09:09:18;26.10;57.70
16901;DHT22;8567;52.540;6.434;2022-07-21T09:11:45;26.20;57.30
16901;DHT22;8567;52.540;6.434;2022-07-21T09:14:14;26.30;57.10
16901;DHT22;8567;52.540;6.434;2022-07-21T09:16:44;26.30;56.90
16901;DHT22;8567;52.540;6.434;2022-07-21T09:19:17;26.20;57.20
16901;DHT22;8567;52.540;6.434;2022-07-21T09:21:46;26.00;57.30
16901;DHT22;8567;52.540;6.434;2022-07-21T09:24:22;26.00;57.40
16901;DHT22;8567;52.540;6.434;2022-07-21T09:27:04;26.00;57.60
16901;DHT22;8567;52.540;6.434;2022-07-21T09:29:41;26.00;57.40
16901;DHT22;8567;52.540;6.434;2022-07-21T09:32:23;25.90;57.50
16901;DHT22;8567;52.540;6.434;2022-07-21T09:34:54;25.80;57.60
16901;DHT22;8567;52.540;6.434;2022-07-21T09:37:23;25.80;57.80
16901;DHT22;8567;52.540;6.434;2022-07-21T09:39:51;25.90;57.50
16901;DHT22;8567;52.540;6.434;2022-07-21T09:42:21;25.90;57.30
16901;DHT22;8567;52.540;6.434;2022-07-21T09:44:50;25.90;57.40
16901;DHT22;8567;52.540;6.434;2022-07-21T09:47:19;25.90;57.10
16901;DHT22;8567;52.540;6.434;2022-07-21T09:49:46;25.90;57.10
16901;DHT22;8567;52.540;6.434;2022-07-21T09:52:36;26.00;57.00
16901;DHT22;8567;52.540;6.434;2022-07-21T09:55:05;26.00;56.60
16901;DHT22;8567;52.540;6.434;2022-07-21T09:57:33;26.00;56.80
16901;DHT22;8567;52.540;6.434;2022-07-21T10:00:00;26.00;56.80
16901;DHT22;8567;52.540;6.434;2022-07-21T10:02:30;26.00;56.70
16901;DHT22;8567;52.540;6.434;2022-07-21T10:04:59;26.10;56.20
16901;DHT22;8567;52.540;6.434;2022-07-21T10:07:27;26.10;55.80
16901;DHT22;8567;52.540;6.434;2022-07-21T10:09:56;26.10;55.60
16901;DHT22;8567;52.540;6.434;2022-07-21T10:12:24;26.00;55.60
16901;DHT22;8567;52.540;6.434;2022-07-21T10:14:51;26.00;55.50
16901;DHT22;8567;52.540;6.434;2022-07-21T10:17:19;26.00;55.50
16901;DHT22;8567;52.540;6.434;2022-07-21T10:19:53;26.00;55.50
16901;DHT22;8567;52.540;6.434;2022-07-21T10:22:31;25.90;55.60
16901;DHT22;8567;52.540;6.434;2022-07-21T10:25:03;25.90;55.80
16901;DHT22;8567;52.540;6.434;2022-07-21T10:27:30;25.90;56.00
16901;DHT22;8567;52.540;6.434;2022-07-21T10:29:59;25.90;56.10
16901;DHT22;8567;52.540;6.434;2022-07-21T10:32:30;26.00;56.00
16901;DHT22;8567;52.540;6.434;2022-07-21T10:34:58;26.00;55.80
16901;DHT22;8567;52.540;6.434;2022-07-21T10:37:44;25.90;55.90
16901;DHT22;8567;52.540;6.434;2022-07-21T10:40:34;25.90;56.00
16901;DHT22;8567;52.540;6.434;2022-07-21T10:43:39;25.90;55.90
16901;DHT22;8567;52.540;6.434;2022-07-21T10:46:32;25.90;56.00
16901;DHT22;8567;52.540;6.434;2022-07-21T10:48:59;25.90;56.10
16901;DHT22;8567;52.540;6.434;2022-07-21T10:51:26;25.90;56.00
16901;DHT22;8567;52.540;6.434;2022-07-21T10:54:20;25.90;55.90
16901;DHT22;8567;52.540;6.434;2022-07-21T10:57:25;25.90;56.00
16901;DHT22;8567;52.540;6.434;2022-07-21T11:00:15;25.80;56.10
16901;DHT22;8567;52.540;6.434;2022-07-21T11:02:46;25.80;56.30
16901;DHT22;8567;52.540;6.434;2022-07-21T11:05:14;25.80;56.30
16901;DHT22;8567;52.540;6.434;2022-07-21T11:08:12;25.80;56.30
16901;DHT22;8567;52.540;6.434;2022-07-21T11:10:41;25.70;56.70
16901;DHT22;8567;52.540;6.434;2022-07-21T11:13:12;25.70;57.30
16901;DHT22;8567;52.540;6.434;2022-07-21T11:15:44;25.70;57.60
16901;DHT22;8567;52.540;6.434;2022-07-21T11:18:16;25.70;57.90
16901;DHT22;8567;52.540;6.434;2022-07-21T11:20:44;25.80;57.90
16901;DHT22;8567;52.540;6.434;2022-07-21T11:23:34;26.00;57.40
16901;DHT22;8567;52.540;6.434;2022-07-21T11:26:01;26.10;57.10
16901;DHT22;8567;52.540;6.434;2022-07-21T11:28:29;26.10;56.70
16901;DHT22;8567;52.540;6.434;2022-07-21T11:31:06;26.20;56.30
16901;DHT22;8567;52.540;6.434;2022-07-21T11:33:34;26.30;55.90
16901;DHT22;8567;52.540;6.434;2022-07-21T11:36:02;26.40;56.20
16901;DHT22;8567;52.540;6.434;2022-07-21T11:38:29;26.40;56.00
16901;DHT22;8567;52.540;6.434;2022-07-21T11:41:12;26.40;56.20
16901;DHT22;8567;52.540;6.434;2022-07-21T11:43:41;26.30;56.00
16901;DHT22;8567;52.540;6.434;2022-07-21T11:46:08;26.40;56.00
16901;DHT22;8567;52.540;6.434;2022-07-21T11:48:35;26.40;55.90
16901;DHT22;8567;52.540;6.434;2022-07-21T11:51:03;26.50;55.80
16901;DHT22;8567;52.540;6.434;2022-07-21T11:53:30;26.50;55.90
16901;DHT22;8567;52.540;6.434;2022-07-21T11:55:57;26.40;57.10
16901;DHT22;8567;52.540;6.434;2022-07-21T11:58:25;26.20;57.20
16901;DHT22;8567;52.540;6.434;2022-07-21T12:01:05;26.20;57.90
16901;DHT22;8567;52.540;6.434;2022-07-21T12:03:33;26.20;58.00
16901;DHT22;8567;52.540;6.434;2022-07-21T12:06:00;26.10;58.20
16901;DHT22;8567;52.540;6.434;2022-07-21T12:08:28;26.20;58.30
16901;DHT22;8567;52.540;6.434;2022-07-21T12:11:04;26.20;58.10
16901;DHT22;8567;52.540;6.434;2022-07-21T12:13:56;26.10;58.20
16901;DHT22;8567;52.540;6.434;2022-07-21T12:16:25;26.10;58.40
16901;DHT22;8567;52.540;6.434;2022-07-21T12:19:09;26.10;58.30
16901;DHT22;8567;52.540;6.434;2022-07-21T12:21:45;26.10;58.40
16901;DHT22;8567;52.540;6.434;2022-07-21T12:24:12;26.00;59.10
16901;DHT22;8567;52.540;6.434;2022-07-21T12:26:39;25.80;59.70
16901;DHT22;8567;52.540;6.434;2022-07-21T12:29:05;25.60;60.20
16901;DHT22;8567;52.540;6.434;2022-07-21T12:31:34;25.50;60.60
16901;DHT22;8567;52.540;6.434;2022-07-21T12:34:11;25.40;60.90
16901;DHT22;8567;52.540;6.434;2022-07-21T12:36:38;25.40;61.00
16901;DHT22;8567;52.540;6.434;2022-07-21T12:39:16;25.40;61.00
16901;DHT22;8567;52.540;6.434;2022-07-21T12:42:06;25.40;60.90
16901;DHT22;8567;52.540;6.434;2022-07-21T12:44:34;25.50;60.70
16901;DHT22;8567;52.540;6.434;2022-07-21T12:47:17;25.50;60.60
16901;DHT22;8567;52.540;6.434;2022-07-21T12:49:59;25.40;60.90
16901;DHT22;8567;52.540;6.434;2022-07-21T12:52:26;25.10;61.90
16901;DHT22;8567;52.540;6.434;2022-07-21T12:54:53;24.80;62.70
16901;DHT22;8567;52.540;6.434;2022-07-21T12:57:20;24.70;63.30
16901;DHT22;8567;52.540;6.434;2022-07-21T12:59:47;24.80;62.90
16901;DHT22;8567;52.540;6.434;2022-07-21T13:02:14;24.60;63.50
16901;DHT22;8567;52.540;6.434;2022-07-21T13:04:42;24.50;64.20
16901;DHT22;8567;52.540;6.434;2022-07-21T13:07:09;24.70;63.50
16901;DHT22;8567;52.540;6.434;2022-07-21T13:09:35;24.60;63.80
16901;DHT22;8567;52.540;6.434;2022-07-21T13:12:02;24.50;64.30
16901;DHT22;8567;52.540;6.434;2022-07-21T13:14:30;24.50;64.50
16901;DHT22;8567;52.540;6.434;2022-07-21T13:16:57;24.60;64.40
16901;DHT22;8567;52.540;6.434;2022-07-21T13:19:24;24.50;64.40
16901;DHT22;8567;52.540;6.434;2022-07-21T13:21:55;24.60;64.60
16901;DHT22;8567;52.540;6.434;2022-07-21T13:24:22;24.50;64.70
16901;DHT22;8567;52.540;6.434;2022-07-21T13:26:48;24.40;65.10
16901;DHT22;8567;52.540;6.434;2022-07-21T13:29:15;24.50;65.50
16901;DHT22;8567;52.540;6.434;2022-07-21T13:31:42;24.60;65.10
16901;DHT22;8567;52.540;6.434;2022-07-21T13:34:09;24.50;65.40
16901;DHT22;8567;52.540;6.434;2022-07-21T13:36:36;24.40;65.80
16901;DHT22;8567;52.540;6.434;2022-07-21T13:39:06;24.40;65.70
16901;DHT22;8567;52.540;6.434;2022-07-21T13:41:33;24.30;66.00
16901;DHT22;8567;52.540;6.434;2022-07-21T13:44:00;24.10;66.60
16901;DHT22;8567;52.540;6.434;2022-07-21T13:46:27;24.30;66.30
16901;DHT22;8567;52.540;6.434;2022-07-21T13:48:54;24.40;65.80
16901;DHT22;8567;52.540;6.434;2022-07-21T13:51:21;24.40;65.80
16901;DHT22;8567;52.540;6.434;2022-07-21T13:53:50;24.40;65.90
16901;DHT22;8567;52.540;6.434;2022-07-21T13:56:20;24.40;66.10
16901;DHT22;8567;52.540;6.434;2022-07-21T13:58:46;24.40;66.00
16901;DHT22;8567;52.540;6.434;2022-07-21T14:01:13;24.50;65.20
16901;DHT22;8567;52.540;6.434;2022-07-21T14:03:41;24.50;65.70
16901;DHT22;8567;52.540;6.434;2022-07-21T14:06:08;24.50;65.70
16901;DHT22;8567;52.540;6.434;2022-07-21T14:08:35;24.50;65.30
16901;DHT22;8567;52.540;6.434;2022-07-21T14:11:02;24.80;64.40
16901;DHT22;8567;52.540;6.434;2022-07-21T14:13:31;24.90;64.00
16901;DHT22;8567;52.540;6.434;2022-07-21T14:15:58;24.90;63.70
16901;DHT22;8567;52.540;6.434;2022-07-21T14:18:24;25.00;63.50
16901;DHT22;8567;52.540;6.434;2022-07-21T14:20:51;25.00;63.20
16901;DHT22;8567;52.540;6.434;2022-07-21T14:23:18;25.00;63.00
16901;DHT22;8567;52.540;6.434;2022-07-21T14:25:46;25.00;62.90
16901;DHT22;8567;52.540;6.434;2022-07-21T14:28:13;25.00;62.50
16901;DHT22;8567;52.540;6.434;2022-07-21T14:30:41;25.00;62.40
16901;DHT22;8567;52.540;6.434;2022-07-21T14:33:08;25.10;62.40
16901;DHT22;8567;52.540;6.434;2022-07-21T14:35:35;25.10;62.20
16901;DHT22;8567;52.540;6.434;2022-07-21T14:38:02;25.10;62.10
16901;DHT22;8567;52.540;6.434;2022-07-21T14:40:29;25.10;62.00
16901;DHT22;8567;52.540;6.434;2022-07-21T14:42:56;25.10;61.80
16901;DHT22;8567;52.540;6.434;2022-07-21T14:45:23;25.20;61.70
16901;DHT22;8567;52.540;6.434;2022-07-21T14:47:53;25.20;61.50
16901;DHT22;8567;52.540;6.434;2022-07-21T14:50:22;25.20;61.60
16901;DHT22;8567;52.540;6.434;2022-07-21T14:52:49;25.20;61.30
16901;DHT22;8567;52.540;6.434;2022-07-21T14:55:16;25.20;61.40
16901;DHT22;8567;52.540;6.434;2022-07-21T14:57:43;25.20;61.30
16901;DHT22;8567;52.540;6.434;2022-07-21T15:00:11;25.20;61.20
16901;DHT22;8567;52.540;6.434;2022-07-21T15:02:38;25.20;61.00
16901;DHT22;8567;52.540;6.434;2022-07-21T15:05:06;25.30;60.90
16901;DHT22;8567;52.540;6.434;2022-07-21T15:07:33;25.40;60.70
16901;DHT22;8567;52.540;6.434;2022-07-21T15:10:00;25.30;60.60
16901;DHT22;8567;52.540;6.434;2022-07-21T15:12:28;25.40;60.50
16901;DHT22;8567;52.540;6.434;2022-07-21T15:14:55;25.30;60.50
16901;DHT22;8567;52.540;6.434;2022-07-21T15:17:22;25.40;60.30
16901;DHT22;8567;52.540;6.434;2022-07-21T15:19:48;25.40;60.30
16901;DHT22;8567;52.540;6.434;2022-07-21T15:22:19;25.30;60.40
16901;DHT22;8567;52.540;6.434;2022-07-21T15:24:46;25.30;60.40
16901;DHT22;8567;52.540;6.434;2022-07-21T15:27:13;25.30;60.30
16901;DHT22;8567;52.540;6.434;2022-07-21T15:29:39;25.40;60.30
16901;DHT22;8567;52.540;6.434;2022-07-21T15:32:06;25.40;60.20
16901;DHT22;8567;52.540;6.434;2022-07-21T15:34:33;25.40;60.10
16901;DHT22;8567;52.540;6.434;2022-07-21T15:37:00;25.40;60.00
16901;DHT22;8567;52.540;6.434;2022-07-21T15:39:28;25.40;60.00
16901;DHT22;8567;52.540;6.434;2022-07-21T15:41:55;25.40;59.90
16901;DHT22;8567;52.540;6.434;2022-07-21T15:44:22;25.40;59.90
16901;DHT22;8567;52.540;6.434;2022-07-21T15:46:50;25.40;59.90
16901;DHT22;8567;52.540;6.434;2022-07-21T15:49:17;25.40;59.90
16901;DHT22;8567;52.540;6.434;2022-07-21T15:51:44;25.40;59.90
16901;DHT22;8567;52.540;6.434;2022-07-21T15:54:11;25.40;60.00